This is the latest recevied weather packets stored in our database for station/object KC1TEM-13. If no packets are shown the sender has not sent any weather packets the latest 1 day(s).
| Time | Temp. | Humidity | Pressure | Rain* | Wind** | Luminosity | Snow |
|---|---|---|---|---|---|---|---|
| 1777993196 | 22.78° C | 44% | 1009.6 hPa | 0 mm | 0.89 m/s, 182° | 787 W/m² | - |
| 1777992894 | 22.78° C | 45% | 1009.5 hPa | 0 mm | 2.24 m/s, 249° | 774 W/m² | - |
| 1777992593 | 22.22° C | 46% | 1009.8 hPa | 0 mm | 1.79 m/s, 198° | 767 W/m² | - |
| 1777992290 | 22.78° C | 44% | 1009.7 hPa | 0 mm | 2.24 m/s, 243° | 254 W/m² | - |
| 1777991987 | 22.78° C | 46% | 1009.7 hPa | 0 mm | 1.79 m/s, 208° | 385 W/m² | - |
| 1777991685 | 22.78° C | 44% | 1009.4 hPa | 0 mm | 0 m/s | 753 W/m² | - |
| 1777991382 | 22.22° C | 47% | 1009.5 hPa | 0 mm | 0 m/s | 749 W/m² | - |
| 1777991079 | 21.67° C | 47% | 1009.6 hPa | 0 mm | 0.89 m/s, 190° | 729 W/m² | - |
| 1777990776 | 21.11° C | 49% | 1009.5 hPa | 0 mm | 0.45 m/s, 333° | 722 W/m² | - |
| 1777990473 | 21.11° C | 48% | 1009.6 hPa | 0 mm | 1.34 m/s, 247° | 713 W/m² | - |
| 1777990170 | 20.56° C | 50% | 1009.5 hPa | 0 mm | 1.34 m/s, 209° | 636 W/m² | - |
| 1777989867 | 20° C | 50% | 1009.5 hPa | 0 mm | 0.89 m/s, 191° | 661 W/m² | - |
| 1777989570 | 20° C | 50% | 1009.8 hPa | 0 mm | 0.89 m/s, 209° | 797 W/m² | - |
| 1777989260 | 19.44° C | 53% | 1009.5 hPa | 0 mm | 0.89 m/s, 205° | 279 W/m² | - |
| 1777988957 | 19.44° C | 52% | 1009.5 hPa | 0 mm | 1.79 m/s, 193° | 209 W/m² | - |
| 1777988653 | 19.44° C | 51% | 1009.5 hPa | 0 mm | 0.89 m/s, 246° | 287 W/m² | - |
| 1777988350 | 18.89° C | 53% | 1009.5 hPa | 0 mm | 1.34 m/s, 10° | 585 W/m² | - |
| 1777988047 | 18.33° C | 54% | 1009.6 hPa | 0 mm | 0.89 m/s, 182° | 263 W/m² | - |
| 1777987742 | 18.33° C | 54% | 1009.6 hPa | 0 mm | 1.34 m/s, 274° | 126 W/m² | - |
| 1777987440 | 18.33° C | 55% | 1009.3 hPa | 0 mm | 0 m/s | 177 W/m² | - |
| 1777987137 | 18.89° C | 52% | 1009.9 hPa | 0 mm | 0.45 m/s, 222° | 118 W/m² | - |
| 1777986834 | 18.89° C | 51% | 1009.6 hPa | 0 mm | 0.45 m/s, 194° | 174 W/m² | - |
| 1777986532 | 19.44° C | 51% | 1009.5 hPa | 0 mm | 0 m/s | 500 W/m² | - |
| 1777986229 | 18.89° C | 53% | 1009.7 hPa | 0 mm | 0.45 m/s, 187° | 338 W/m² | - |
| 1777985926 | 18.89° C | 54% | 1009.5 hPa | 0 mm | 0.45 m/s, 199° | 196 W/m² | - |
* Rain latest hour (hover to see other rain measurements)
** Current wind speed in m/s (hover to see current wind gust speed)